sensor_id;sensor_type;location;lat;lon;timestamp;temperature;humidity
64226;DHT22;50545;56.064;26.178;2022-09-09T00:02:22;0.80;99.90
64226;DHT22;50545;56.064;26.178;2022-09-09T00:18:24;0.70;99.90
64226;DHT22;50545;56.064;26.178;2022-09-09T00:21:05;0.60;99.90
64226;DHT22;50545;56.064;26.178;2022-09-09T00:23:37;0.60;99.90
64226;DHT22;50545;56.064;26.178;2022-09-09T00:26:38;0.50;99.90
64226;DHT22;50545;56.064;26.178;2022-09-09T00:29:58;0.50;99.90
64226;DHT22;50545;56.064;26.178;2022-09-09T00:32:18;0.50;99.90
64226;DHT22;50545;56.064;26.178;2022-09-09T00:35:12;0.50;99.90
64226;DHT22;50545;56.064;26.178;2022-09-09T00:37:44;0.50;99.90
64226;DHT22;50545;56.064;26.178;2022-09-09T00:40:34;0.50;99.90
64226;DHT22;50545;56.064;26.178;2022-09-09T00:43:36;0.50;99.90
64226;DHT22;50545;56.064;26.178;2022-09-09T00:46:39;0.50;99.90
64226;DHT22;50545;56.064;26.178;2022-09-09T00:52:15;0.50;99.90
64226;DHT22;50545;56.064;26.178;2022-09-09T00:57:42;0.40;99.90
64226;DHT22;50545;56.064;26.178;2022-09-09T01:11:49;0.30;99.90
64226;DHT22;50545;56.064;26.178;2022-09-09T01:14:38;0.30;99.90
64226;DHT22;50545;56.064;26.178;2022-09-09T01:17:17;0.20;99.90
64226;DHT22;50545;56.064;26.178;2022-09-09T01:20:25;0.20;99.90
64226;DHT22;50545;56.064;26.178;2022-09-09T01:28:16;0.10;99.90
64226;DHT22;50545;56.064;26.178;2022-09-09T01:30:45;0.10;99.90
64226;DHT22;50545;56.064;26.178;2022-09-09T01:33:17;0.00;99.90
64226;DHT22;50545;56.064;26.178;2022-09-09T01:36:13;0.00;99.90
64226;DHT22;50545;56.064;26.178;2022-09-09T01:38:42;0.00;99.90
64226;DHT22;50545;56.064;26.178;2022-09-09T01:41:10;-0.10;99.90
64226;DHT22;50545;56.064;26.178;2022-09-09T01:43:37;-0.10;99.90
64226;DHT22;50545;56.064;26.178;2022-09-09T01:46:05;-0.10;99.90
64226;DHT22;50545;56.064;26.178;2022-09-09T01:48:33;-0.10;99.90
64226;DHT22;50545;56.064;26.178;2022-09-09T01:51:00;-0.10;99.90
64226;DHT22;50545;56.064;26.178;2022-09-09T01:53:28;-0.20;99.90
64226;DHT22;50545;56.064;26.178;2022-09-09T01:56:04;-0.20;99.90
64226;DHT22;50545;56.064;26.178;2022-09-09T01:59:01;-0.20;99.90
64226;DHT22;50545;56.064;26.178;2022-09-09T02:04:52;-0.20;99.90
64226;DHT22;50545;56.064;26.178;2022-09-09T02:07:00;-0.20;99.90
64226;DHT22;50545;56.064;26.178;2022-09-09T02:09:29;-0.20;99.90
64226;DHT22;50545;56.064;26.178;2022-09-09T02:12:09;-0.20;99.90
64226;DHT22;50545;56.064;26.178;2022-09-09T02:14:47;-0.30;99.90
64226;DHT22;50545;56.064;26.178;2022-09-09T02:17:21;-0.30;99.90
64226;DHT22;50545;56.064;26.178;2022-09-09T02:19:54;-0.30;99.90
64226;DHT22;50545;56.064;26.178;2022-09-09T02:22:24;-0.30;99.90
64226;DHT22;50545;56.064;26.178;2022-09-09T02:24:57;-0.30;99.90
64226;DHT22;50545;56.064;26.178;2022-09-09T02:27:26;-0.30;99.90
64226;DHT22;50545;56.064;26.178;2022-09-09T02:29:55;-0.30;99.90
64226;DHT22;50545;56.064;26.178;2022-09-09T02:32:24;-0.40;99.90
64226;DHT22;50545;56.064;26.178;2022-09-09T02:34:58;-0.40;99.90
64226;DHT22;50545;56.064;26.178;2022-09-09T02:37:32;-0.40;99.90
64226;DHT22;50545;56.064;26.178;2022-09-09T02:40:06;-0.50;99.90
64226;DHT22;50545;56.064;26.178;2022-09-09T02:42:45;-0.50;99.90
64226;DHT22;50545;56.064;26.178;2022-09-09T02:45:16;-0.50;99.90
64226;DHT22;50545;56.064;26.178;2022-09-09T02:47:55;-0.50;99.90
64226;DHT22;50545;56.064;26.178;2022-09-09T02:50:33;-0.50;99.90
64226;DHT22;50545;56.064;26.178;2022-09-09T02:53:20;-0.60;99.90
64226;DHT22;50545;56.064;26.178;2022-09-09T02:55:58;-0.60;99.90
64226;DHT22;50545;56.064;26.178;2022-09-09T02:58:27;-0.60;99.90
64226;DHT22;50545;56.064;26.178;2022-09-09T03:00:55;-0.60;99.90
64226;DHT22;50545;56.064;26.178;2022-09-09T03:03:25;-0.60;99.90
64226;DHT22;50545;56.064;26.178;2022-09-09T03:05:52;-0.60;99.90
64226;DHT22;50545;56.064;26.178;2022-09-09T03:08:19;-0.60;99.90
64226;DHT22;50545;56.064;26.178;2022-09-09T03:10:46;-0.60;99.90
64226;DHT22;50545;56.064;26.178;2022-09-09T03:13:14;-0.60;99.90
64226;DHT22;50545;56.064;26.178;2022-09-09T03:15:42;-0.60;99.90
64226;DHT22;50545;56.064;26.178;2022-09-09T03:18:09;-0.60;99.90
64226;DHT22;50545;56.064;26.178;2022-09-09T03:20:36;-0.60;99.90
64226;DHT22;50545;56.064;26.178;2022-09-09T03:23:03;-0.60;99.90
64226;DHT22;50545;56.064;26.178;2022-09-09T03:25:31;-0.60;99.90
64226;DHT22;50545;56.064;26.178;2022-09-09T03:27:59;-0.60;99.90
64226;DHT22;50545;56.064;26.178;2022-09-09T03:30:27;-0.60;99.90
64226;DHT22;50545;56.064;26.178;2022-09-09T03:32:55;-0.60;99.90
64226;DHT22;50545;56.064;26.178;2022-09-09T03:35:22;-0.60;99.90
64226;DHT22;50545;56.064;26.178;2022-09-09T03:37:49;-0.70;99.90
64226;DHT22;50545;56.064;26.178;2022-09-09T03:40:16;-0.70;99.90
64226;DHT22;50545;56.064;26.178;2022-09-09T03:42:45;-0.70;99.90
64226;DHT22;50545;56.064;26.178;2022-09-09T03:45:12;-0.70;99.90
64226;DHT22;50545;56.064;26.178;2022-09-09T03:47:39;-0.70;99.90
64226;DHT22;50545;56.064;26.178;2022-09-09T03:50:08;-0.80;99.90
64226;DHT22;50545;56.064;26.178;2022-09-09T03:52:38;-0.80;99.90
64226;DHT22;50545;56.064;26.178;2022-09-09T03:55:06;-0.80;99.90
64226;DHT22;50545;56.064;26.178;2022-09-09T03:57:35;-0.80;99.90
64226;DHT22;50545;56.064;26.178;2022-09-09T04:00:04;-0.80;99.90
64226;DHT22;50545;56.064;26.178;2022-09-09T04:02:32;-0.80;99.90
64226;DHT22;50545;56.064;26.178;2022-09-09T04:04:59;-0.80;99.90
64226;DHT22;50545;56.064;26.178;2022-09-09T04:07:26;-0.80;99.90
64226;DHT22;50545;56.064;26.178;2022-09-09T04:09:55;-0.80;99.90
64226;DHT22;50545;56.064;26.178;2022-09-09T04:12:22;-0.90;99.90
64226;DHT22;50545;56.064;26.178;2022-09-09T04:14:49;-0.80;99.90
64226;DHT22;50545;56.064;26.178;2022-09-09T04:17:16;-0.80;99.90
64226;DHT22;50545;56.064;26.178;2022-09-09T04:19:44;-0.80;99.90
64226;DHT22;50545;56.064;26.178;2022-09-09T04:22:11;-0.80;99.90
64226;DHT22;50545;56.064;26.178;2022-09-09T04:24:38;-0.70;99.90
64226;DHT22;50545;56.064;26.178;2022-09-09T04:27:05;-0.70;99.90
64226;DHT22;50545;56.064;26.178;2022-09-09T04:29:33;-0.70;99.90
64226;DHT22;50545;56.064;26.178;2022-09-09T04:32:00;-0.70;99.90
64226;DHT22;50545;56.064;26.178;2022-09-09T04:34:28;-0.60;99.90
64226;DHT22;50545;56.064;26.178;2022-09-09T04:36:55;-0.50;99.90
64226;DHT22;50545;56.064;26.178;2022-09-09T04:39:23;-0.50;99.90
64226;DHT22;50545;56.064;26.178;2022-09-09T04:41:51;-0.50;99.90
64226;DHT22;50545;56.064;26.178;2022-09-09T04:44:18;-0.40;99.90
64226;DHT22;50545;56.064;26.178;2022-09-09T04:46:46;-0.40;99.90
64226;DHT22;50545;56.064;26.178;2022-09-09T04:49:13;-0.30;99.90
64226;DHT22;50545;56.064;26.178;2022-09-09T04:51:41;-0.30;99.90
64226;DHT22;50545;56.064;26.178;2022-09-09T04:54:08;-0.20;99.90
64226;DHT22;50545;56.064;26.178;2022-09-09T04:56:35;-0.10;99.90
64226;DHT22;50545;56.064;26.178;2022-09-09T04:59:03;-0.10;99.90
64226;DHT22;50545;56.064;26.178;2022-09-09T05:01:30;0.00;99.90
64226;DHT22;50545;56.064;26.178;2022-09-09T05:03:58;0.20;99.90
64226;DHT22;50545;56.064;26.178;2022-09-09T05:06:26;0.30;99.90
64226;DHT22;50545;56.064;26.178;2022-09-09T05:08:53;0.50;99.90
64226;DHT22;50545;56.064;26.178;2022-09-09T05:11:23;0.60;99.90
64226;DHT22;50545;56.064;26.178;2022-09-09T05:13:51;0.80;99.90
64226;DHT22;50545;56.064;26.178;2022-09-09T05:16:20;0.90;99.90
64226;DHT22;50545;56.064;26.178;2022-09-09T05:18:48;1.20;99.90
64226;DHT22;50545;56.064;26.178;2022-09-09T05:21:18;1.30;99.90
64226;DHT22;50545;56.064;26.178;2022-09-09T05:23:46;1.60;99.90
64226;DHT22;50545;56.064;26.178;2022-09-09T05:26:16;1.70;99.90
64226;DHT22;50545;56.064;26.178;2022-09-09T05:28:44;1.90;99.90
64226;DHT22;50545;56.064;26.178;2022-09-09T05:31:13;2.10;99.90
64226;DHT22;50545;56.064;26.178;2022-09-09T05:33:42;2.30;99.90
64226;DHT22;50545;56.064;26.178;2022-09-09T05:36:15;2.50;99.90
64226;DHT22;50545;56.064;26.178;2022-09-09T05:38:43;2.60;99.90
64226;DHT22;50545;56.064;26.178;2022-09-09T05:41:11;2.80;99.90
64226;DHT22;50545;56.064;26.178;2022-09-09T05:43:39;2.90;99.90
64226;DHT22;50545;56.064;26.178;2022-09-09T05:46:08;3.10;99.90
64226;DHT22;50545;56.064;26.178;2022-09-09T05:48:41;3.30;99.90
64226;DHT22;50545;56.064;26.178;2022-09-09T05:51:11;3.40;99.90
64226;DHT22;50545;56.064;26.178;2022-09-09T05:53:43;3.50;99.90
64226;DHT22;50545;56.064;26.178;2022-09-09T05:56:16;3.70;99.90
64226;DHT22;50545;56.064;26.178;2022-09-09T05:58:47;3.70;99.90
64226;DHT22;50545;56.064;26.178;2022-09-09T06:01:16;3.90;99.90
64226;DHT22;50545;56.064;26.178;2022-09-09T06:03:45;4.10;99.90
64226;DHT22;50545;56.064;26.178;2022-09-09T06:06:21;4.20;99.90
64226;DHT22;50545;56.064;26.178;2022-09-09T06:08:51;4.40;99.90
64226;DHT22;50545;56.064;26.178;2022-09-09T06:11:20;4.60;99.90
64226;DHT22;50545;56.064;26.178;2022-09-09T06:13:48;4.70;99.90
64226;DHT22;50545;56.064;26.178;2022-09-09T06:16:19;4.90;99.90
64226;DHT22;50545;56.064;26.178;2022-09-09T06:18:46;5.00;99.90
64226;DHT22;50545;56.064;26.178;2022-09-09T06:21:20;5.10;99.90
64226;DHT22;50545;56.064;26.178;2022-09-09T06:23:48;5.30;99.90
64226;DHT22;50545;56.064;26.178;2022-09-09T06:26:17;5.50;99.90
64226;DHT22;50545;56.064;26.178;2022-09-09T06:28:46;5.60;99.90
64226;DHT22;50545;56.064;26.178;2022-09-09T06:31:16;5.80;99.90
64226;DHT22;50545;56.064;26.178;2022-09-09T06:33:56;5.90;99.90
64226;DHT22;50545;56.064;26.178;2022-09-09T06:36:25;6.10;99.90
64226;DHT22;50545;56.064;26.178;2022-09-09T06:38:53;6.20;99.90
64226;DHT22;50545;56.064;26.178;2022-09-09T06:41:22;6.40;99.90
64226;DHT22;50545;56.064;26.178;2022-09-09T06:43:50;6.50;99.90
64226;DHT22;50545;56.064;26.178;2022-09-09T06:46:19;6.70;99.90
64226;DHT22;50545;56.064;26.178;2022-09-09T06:48:47;6.90;99.90
64226;DHT22;50545;56.064;26.178;2022-09-09T06:51:18;7.10;99.90
64226;DHT22;50545;56.064;26.178;2022-09-09T06:53:46;7.30;99.90
64226;DHT22;50545;56.064;26.178;2022-09-09T06:58:44;7.70;99.90
64226;DHT22;50545;56.064;26.178;2022-09-09T07:01:15;7.80;99.90
64226;DHT22;50545;56.064;26.178;2022-09-09T07:03:45;8.00;99.90
64226;DHT22;50545;56.064;26.178;2022-09-09T07:06:15;8.20;99.90
64226;DHT22;50545;56.064;26.178;2022-09-09T07:08:50;8.40;99.90
64226;DHT22;50545;56.064;26.178;2022-09-09T07:11:24;8.60;99.90
64226;DHT22;50545;56.064;26.178;2022-09-09T07:13:53;8.80;99.90
64226;DHT22;50545;56.064;26.178;2022-09-09T07:16:21;9.00;99.90
64226;DHT22;50545;56.064;26.178;2022-09-09T07:18:52;9.10;99.90
64226;DHT22;50545;56.064;26.178;2022-09-09T07:21:25;9.20;99.90
64226;DHT22;50545;56.064;26.178;2022-09-09T07:23:53;9.40;99.90
64226;DHT22;50545;56.064;26.178;2022-09-09T07:26:26;9.50;99.90
64226;DHT22;50545;56.064;26.178;2022-09-09T07:28:54;9.70;99.90
64226;DHT22;50545;56.064;26.178;2022-09-09T07:31:25;9.80;99.90
64226;DHT22;50545;56.064;26.178;2022-09-09T07:33:53;9.90;99.90
64226;DHT22;50545;56.064;26.178;2022-09-09T07:36:25;10.10;99.90
64226;DHT22;50545;56.064;26.178;2022-09-09T07:39:04;10.20;99.90
64226;DHT22;50545;56.064;26.178;2022-09-09T07:41:34;10.30;98.10
64226;DHT22;50545;56.064;26.178;2022-09-09T07:44:11;10.40;99.90
64226;DHT22;50545;56.064;26.178;2022-09-09T07:46:40;10.60;99.90
64226;DHT22;50545;56.064;26.178;2022-09-09T07:49:09;10.70;96.10
64226;DHT22;50545;56.064;26.178;2022-09-09T07:51:39;10.80;90.30
64226;DHT22;50545;56.064;26.178;2022-09-09T07:54:10;10.90;90.90
64226;DHT22;50545;56.064;26.178;2022-09-09T07:56:43;11.00;90.00
64226;DHT22;50545;56.064;26.178;2022-09-09T07:59:10;11.00;90.30
64226;DHT22;50545;56.064;26.178;2022-09-09T08:01:50;10.90;85.50
64226;DHT22;50545;56.064;26.178;2022-09-09T08:04:22;10.80;92.20
64226;DHT22;50545;56.064;26.178;2022-09-09T08:06:56;10.90;90.00
64226;DHT22;50545;56.064;26.178;2022-09-09T08:09:24;10.90;91.80
64226;DHT22;50545;56.064;26.178;2022-09-09T08:11:54;10.90;90.50
64226;DHT22;50545;56.064;26.178;2022-09-09T08:14:23;11.10;90.00
64226;DHT22;50545;56.064;26.178;2022-09-09T08:16:51;11.30;90.20
64226;DHT22;50545;56.064;26.178;2022-09-09T08:19:21;11.50;82.10
64226;DHT22;50545;56.064;26.178;2022-09-09T08:21:48;11.50;78.90
64226;DHT22;50545;56.064;26.178;2022-09-09T08:24:16;11.50;77.50
64226;DHT22;50545;56.064;26.178;2022-09-09T08:26:45;11.50;77.50
64226;DHT22;50545;56.064;26.178;2022-09-09T08:29:13;11.60;78.90
64226;DHT22;50545;56.064;26.178;2022-09-09T08:31:46;11.80;75.90
64226;DHT22;50545;56.064;26.178;2022-09-09T08:34:13;12.00;76.50
64226;DHT22;50545;56.064;26.178;2022-09-09T08:36:45;12.20;77.80
64226;DHT22;50545;56.064;26.178;2022-09-09T08:39:15;12.40;74.40
64226;DHT22;50545;56.064;26.178;2022-09-09T08:58:27;13.40;69.20
64226;DHT22;50545;56.064;26.178;2022-09-09T09:04:15;13.40;66.40
64226;DHT22;50545;56.064;26.178;2022-09-09T09:10:26;13.60;67.40
64226;DHT22;50545;56.064;26.178;2022-09-09T09:13:44;13.70;66.20
64226;DHT22;50545;56.064;26.178;2022-09-09T09:18:52;13.60;66.60
64226;DHT22;50545;56.064;26.178;2022-09-09T09:21:43;13.70;67.00
64226;DHT22;50545;56.064;26.178;2022-09-09T09:24:20;13.80;66.80
64226;DHT22;50545;56.064;26.178;2022-09-09T09:26:49;13.80;66.20
64226;DHT22;50545;56.064;26.178;2022-09-09T09:29:18;13.90;66.30
64226;DHT22;50545;56.064;26.178;2022-09-09T09:31:52;14.00;64.70
64226;DHT22;50545;56.064;26.178;2022-09-09T09:34:22;14.00;66.80
64226;DHT22;50545;56.064;26.178;2022-09-09T09:36:55;14.20;66.40
64226;DHT22;50545;56.064;26.178;2022-09-09T09:42:12;14.30;62.00
64226;DHT22;50545;56.064;26.178;2022-09-09T09:44:44;14.30;61.40
64226;DHT22;50545;56.064;26.178;2022-09-09T09:47:14;14.40;64.70
64226;DHT22;50545;56.064;26.178;2022-09-09T09:49:55;14.50;64.10
64226;DHT22;50545;56.064;26.178;2022-09-09T09:52:23;14.40;61.60
64226;DHT22;50545;56.064;26.178;2022-09-09T09:54:52;14.40;61.40
64226;DHT22;50545;56.064;26.178;2022-09-09T09:57:26;14.40;61.60
64226;DHT22;50545;56.064;26.178;2022-09-09T10:00:20;14.60;63.40
64226;DHT22;50545;56.064;26.178;2022-09-09T10:02:48;14.70;63.10
64226;DHT22;50545;56.064;26.178;2022-09-09T10:08:18;15.10;61.00
64226;DHT22;50545;56.064;26.178;2022-09-09T10:36:16;15.60;57.90
64226;DHT22;50545;56.064;26.178;2022-09-09T10:38:45;15.70;57.00
64226;DHT22;50545;56.064;26.178;2022-09-09T10:49:50;15.80;56.60
64226;DHT22;50545;56.064;26.178;2022-09-09T10:52:26;15.60;55.40
64226;DHT22;50545;56.064;26.178;2022-09-09T10:55:17;15.60;59.10
64226;DHT22;50545;56.064;26.178;2022-09-09T10:57:47;15.80;58.70
64226;DHT22;50545;56.064;26.178;2022-09-09T11:00:20;15.90;57.90
64226;DHT22;50545;56.064;26.178;2022-09-09T11:03:01;16.00;56.00
64226;DHT22;50545;56.064;26.178;2022-09-09T11:05:43;16.10;58.90
64226;DHT22;50545;56.064;26.178;2022-09-09T11:08:18;16.20;58.20
64226;DHT22;50545;56.064;26.178;2022-09-09T11:13:43;16.20;57.80
64226;DHT22;50545;56.064;26.178;2022-09-09T11:21:44;16.40;56.40
64226;DHT22;50545;56.064;26.178;2022-09-09T11:30:33;16.70;54.90
64226;DHT22;50545;56.064;26.178;2022-09-09T11:33:49;16.70;55.90
64226;DHT22;50545;56.064;26.178;2022-09-09T11:39:33;17.10;53.50
64226;DHT22;50545;56.064;26.178;2022-09-09T11:42:24;17.10;53.20
64226;DHT22;50545;56.064;26.178;2022-09-09T11:44:51;16.90;53.90
64226;DHT22;50545;56.064;26.178;2022-09-09T11:47:30;16.80;54.10
64226;DHT22;50545;56.064;26.178;2022-09-09T11:50:31;16.60;53.30
64226;DHT22;50545;56.064;26.178;2022-09-09T11:53:14;16.60;57.30
64226;DHT22;50545;56.064;26.178;2022-09-09T11:55:43;16.70;55.20
64226;DHT22;50545;56.064;26.178;2022-09-09T12:00:39;16.70;52.60
64226;DHT22;50545;56.064;26.178;2022-09-09T12:03:50;16.80;53.90
64226;DHT22;50545;56.064;26.178;2022-09-09T12:06:29;16.90;57.90
64226;DHT22;50545;56.064;26.178;2022-09-09T12:09:21;17.00;55.40
64226;DHT22;50545;56.064;26.178;2022-09-09T12:11:50;17.00;52.70
64226;DHT22;50545;56.064;26.178;2022-09-09T12:14:36;16.90;54.60
64226;DHT22;50545;56.064;26.178;2022-09-09T12:17:20;16.90;52.20
64226;DHT22;50545;56.064;26.178;2022-09-09T12:20:09;16.70;53.10
64226;DHT22;50545;56.064;26.178;2022-09-09T12:28:52;16.80;54.70
64226;DHT22;50545;56.064;26.178;2022-09-09T12:31:17;17.00;54.40
64226;DHT22;50545;56.064;26.178;2022-09-09T12:33:49;17.20;52.40
64226;DHT22;50545;56.064;26.178;2022-09-09T12:36:19;17.20;52.10
64226;DHT22;50545;56.064;26.178;2022-09-09T12:38:48;17.30;51.50
64226;DHT22;50545;56.064;26.178;2022-09-09T12:41:23;17.30;52.90
64226;DHT22;50545;56.064;26.178;2022-09-09T12:44:04;17.50;52.00
64226;DHT22;50545;56.064;26.178;2022-09-09T12:46:41;17.50;51.50
64226;DHT22;50545;56.064;26.178;2022-09-09T12:49:34;17.50;51.20
64226;DHT22;50545;56.064;26.178;2022-09-09T12:52:29;17.40;52.30
64226;DHT22;50545;56.064;26.178;2022-09-09T12:55:00;17.50;52.10
64226;DHT22;50545;56.064;26.178;2022-09-09T12:57:33;17.70;53.30
64226;DHT22;50545;56.064;26.178;2022-09-09T13:00:22;17.50;50.60
64226;DHT22;50545;56.064;26.178;2022-09-09T13:02:55;17.60;52.60
64226;DHT22;50545;56.064;26.178;2022-09-09T13:05:24;17.70;52.40
64226;DHT22;50545;56.064;26.178;2022-09-09T13:08:01;17.60;51.20
64226;DHT22;50545;56.064;26.178;2022-09-09T13:10:33;17.60;51.60
64226;DHT22;50545;56.064;26.178;2022-09-09T13:13:36;17.60;52.30
64226;DHT22;50545;56.064;26.178;2022-09-09T13:16:05;17.40;51.80
64226;DHT22;50545;56.064;26.178;2022-09-09T13:18:37;17.40;52.90
64226;DHT22;50545;56.064;26.178;2022-09-09T13:21:06;17.40;51.90
64226;DHT22;50545;56.064;26.178;2022-09-09T13:23:35;17.40;51.70
64226;DHT22;50545;56.064;26.178;2022-09-09T13:26:24;17.30;51.40
64226;DHT22;50545;56.064;26.178;2022-09-09T13:28:54;17.20;50.50
64226;DHT22;50545;56.064;26.178;2022-09-09T13:31:29;17.20;50.70
64226;DHT22;50545;56.064;26.178;2022-09-09T13:33:56;17.30;52.10
64226;DHT22;50545;56.064;26.178;2022-09-09T13:36:29;17.70;50.90
64226;DHT22;50545;56.064;26.178;2022-09-09T13:38:59;18.00;52.00
64226;DHT22;50545;56.064;26.178;2022-09-09T13:41:34;18.20;50.20
64226;DHT22;50545;56.064;26.178;2022-09-09T13:44:03;18.00;48.30
64226;DHT22;50545;56.064;26.178;2022-09-09T13:46:39;18.00;50.60
64226;DHT22;50545;56.064;26.178;2022-09-09T13:54:06;18.30;49.00
64226;DHT22;50545;56.064;26.178;2022-09-09T13:56:34;18.20;48.70
64226;DHT22;50545;56.064;26.178;2022-09-09T13:59:08;18.30;49.90
64226;DHT22;50545;56.064;26.178;2022-09-09T14:01:36;18.60;50.50
64226;DHT22;50545;56.064;26.178;2022-09-09T14:04:04;18.90;48.90
64226;DHT22;50545;56.064;26.178;2022-09-09T14:06:35;19.20;47.60
64226;DHT22;50545;56.064;26.178;2022-09-09T14:09:07;19.00;46.20
64226;DHT22;50545;56.064;26.178;2022-09-09T14:11:34;18.70;47.00
64226;DHT22;50545;56.064;26.178;2022-09-09T14:14:01;18.30;48.00
64226;DHT22;50545;56.064;26.178;2022-09-09T14:16:29;17.80;49.10
64226;DHT22;50545;56.064;26.178;2022-09-09T14:18:56;17.30;49.00
64226;DHT22;50545;56.064;26.178;2022-09-09T14:21:25;16.80;51.10
64226;DHT22;50545;56.064;26.178;2022-09-09T14:23:52;16.30;52.10
64226;DHT22;50545;56.064;26.178;2022-09-09T14:26:21;15.90;53.50
64226;DHT22;50545;56.064;26.178;2022-09-09T14:28:48;15.60;54.00
64226;DHT22;50545;56.064;26.178;2022-09-09T14:31:24;15.50;55.30
64226;DHT22;50545;56.064;26.178;2022-09-09T14:33:52;15.30;55.50
64226;DHT22;50545;56.064;26.178;2022-09-09T14:36:20;15.20;57.40
64226;DHT22;50545;56.064;26.178;2022-09-09T14:38:47;15.10;57.40
64226;DHT22;50545;56.064;26.178;2022-09-09T14:41:17;15.10;57.10
64226;DHT22;50545;56.064;26.178;2022-09-09T14:43:45;14.90;56.50
64226;DHT22;50545;56.064;26.178;2022-09-09T14:46:15;14.90;58.00
64226;DHT22;50545;56.064;26.178;2022-09-09T14:48:43;14.80;59.20
64226;DHT22;50545;56.064;26.178;2022-09-09T14:51:20;14.70;57.90
64226;DHT22;50545;56.064;26.178;2022-09-09T14:53:51;14.60;59.40
64226;DHT22;50545;56.064;26.178;2022-09-09T14:56:22;14.40;58.50
64226;DHT22;50545;56.064;26.178;2022-09-09T14:58:53;14.30;59.10
64226;DHT22;50545;56.064;26.178;2022-09-09T15:01:21;14.30;60.10
64226;DHT22;50545;56.064;26.178;2022-09-09T15:03:54;14.20;60.50
64226;DHT22;50545;56.064;26.178;2022-09-09T15:06:23;14.20;60.20
64226;DHT22;50545;56.064;26.178;2022-09-09T15:08:52;14.10;60.40
64226;DHT22;50545;56.064;26.178;2022-09-09T15:11:20;14.10;61.30
64226;DHT22;50545;56.064;26.178;2022-09-09T15:13:50;14.10;61.40
64226;DHT22;50545;56.064;26.178;2022-09-09T15:16:20;14.10;61.60
64226;DHT22;50545;56.064;26.178;2022-09-09T15:18:51;14.00;61.40
64226;DHT22;50545;56.064;26.178;2022-09-09T15:21:20;13.90;62.30
64226;DHT22;50545;56.064;26.178;2022-09-09T15:23:48;13.80;62.10
64226;DHT22;50545;56.064;26.178;2022-09-09T15:26:16;13.70;62.70
64226;DHT22;50545;56.064;26.178;2022-09-09T15:28:45;13.60;62.70
64226;DHT22;50545;56.064;26.178;2022-09-09T15:31:16;13.50;63.00
64226;DHT22;50545;56.064;26.178;2022-09-09T15:33:48;13.30;63.50
64226;DHT22;50545;56.064;26.178;2022-09-09T15:36:18;13.30;63.40
64226;DHT22;50545;56.064;26.178;2022-09-09T15:38:45;13.20;64.10
64226;DHT22;50545;56.064;26.178;2022-09-09T15:41:13;13.20;64.00
64226;DHT22;50545;56.064;26.178;2022-09-09T15:43:45;13.10;64.90
64226;DHT22;50545;56.064;26.178;2022-09-09T15:46:38;13.10;64.90
64226;DHT22;50545;56.064;26.178;2022-09-09T15:49:14;13.10;64.70
64226;DHT22;50545;56.064;26.178;2022-09-09T15:51:44;13.00;64.60
64226;DHT22;50545;56.064;26.178;2022-09-09T15:54:14;12.90;65.20
64226;DHT22;50545;56.064;26.178;2022-09-09T15:56:44;13.00;66.00
64226;DHT22;50545;56.064;26.178;2022-09-09T15:59:12;12.90;66.10
64226;DHT22;50545;56.064;26.178;2022-09-09T16:01:40;13.00;66.30
64226;DHT22;50545;56.064;26.178;2022-09-09T16:04:09;13.00;66.30
64226;DHT22;50545;56.064;26.178;2022-09-09T16:06:36;13.00;66.70
64226;DHT22;50545;56.064;26.178;2022-09-09T16:09:05;12.90;66.60
64226;DHT22;50545;56.064;26.178;2022-09-09T16:11:35;12.90;66.40
64226;DHT22;50545;56.064;26.178;2022-09-09T16:14:03;12.80;66.40
64226;DHT22;50545;56.064;26.178;2022-09-09T16:16:31;12.70;66.60
64226;DHT22;50545;56.064;26.178;2022-09-09T16:19:05;12.50;66.80
64226;DHT22;50545;56.064;26.178;2022-09-09T16:21:35;12.40;67.70
64226;DHT22;50545;56.064;26.178;2022-09-09T16:24:03;12.20;68.60
64226;DHT22;50545;56.064;26.178;2022-09-09T16:26:33;12.10;69.90
64226;DHT22;50545;56.064;26.178;2022-09-09T16:29:01;11.90;71.20
64226;DHT22;50545;56.064;26.178;2022-09-09T16:31:29;11.70;72.40
64226;DHT22;50545;56.064;26.178;2022-09-09T16:33:59;11.60;73.60
64226;DHT22;50545;56.064;26.178;2022-09-09T16:36:31;11.40;75.20
64226;DHT22;50545;56.064;26.178;2022-09-09T16:39:00;11.20;76.20
64226;DHT22;50545;56.064;26.178;2022-09-09T16:41:29;11.10;77.40
64226;DHT22;50545;56.064;26.178;2022-09-09T16:44:07;10.90;78.50
64226;DHT22;50545;56.064;26.178;2022-09-09T16:46:37;10.70;79.60
64226;DHT22;50545;56.064;26.178;2022-09-09T16:49:10;10.50;80.80
64226;DHT22;50545;56.064;26.178;2022-09-09T16:51:41;10.40;81.80
64226;DHT22;50545;56.064;26.178;2022-09-09T16:54:09;10.30;82.70
64226;DHT22;50545;56.064;26.178;2022-09-09T16:56:39;10.10;83.70
64226;DHT22;50545;56.064;26.178;2022-09-09T16:59:11;10.00;84.90
64226;DHT22;50545;56.064;26.178;2022-09-09T17:01:40;9.80;86.20
64226;DHT22;50545;56.064;26.178;2022-09-09T17:04:11;9.70;88.30
64226;DHT22;50545;56.064;26.178;2022-09-09T17:06:40;9.60;90.30
64226;DHT22;50545;56.064;26.178;2022-09-09T17:09:10;9.50;91.20
64226;DHT22;50545;56.064;26.178;2022-09-09T17:11:39;9.40;92.30
64226;DHT22;50545;56.064;26.178;2022-09-09T17:14:11;9.20;93.20
64226;DHT22;50545;56.064;26.178;2022-09-09T17:16:38;9.10;93.70
64226;DHT22;50545;56.064;26.178;2022-09-09T17:19:07;9.00;94.10
64226;DHT22;50545;56.064;26.178;2022-09-09T17:21:36;8.90;94.70
64226;DHT22;50545;56.064;26.178;2022-09-09T17:24:20;8.80;94.80
64226;DHT22;50545;56.064;26.178;2022-09-09T17:26:48;8.70;95.20
64226;DHT22;50545;56.064;26.178;2022-09-09T17:29:16;8.60;96.00
64226;DHT22;50545;56.064;26.178;2022-09-09T17:31:43;8.50;96.40
64226;DHT22;50545;56.064;26.178;2022-09-09T17:34:11;8.50;97.00
64226;DHT22;50545;56.064;26.178;2022-09-09T17:36:38;8.30;97.90
64226;DHT22;50545;56.064;26.178;2022-09-09T17:39:06;8.20;99.00
64226;DHT22;50545;56.064;26.178;2022-09-09T17:41:36;8.10;99.50
64226;DHT22;50545;56.064;26.178;2022-09-09T17:44:04;8.10;99.90
64226;DHT22;50545;56.064;26.178;2022-09-09T17:46:42;8.00;99.90
64226;DHT22;50545;56.064;26.178;2022-09-09T17:49:12;7.90;99.90
64226;DHT22;50545;56.064;26.178;2022-09-09T17:51:41;7.80;99.90
64226;DHT22;50545;56.064;26.178;2022-09-09T17:54:14;7.80;99.90
64226;DHT22;50545;56.064;26.178;2022-09-09T17:56:42;7.70;99.90
64226;DHT22;50545;56.064;26.178;2022-09-09T17:59:12;7.70;99.90
64226;DHT22;50545;56.064;26.178;2022-09-09T18:01:41;7.60;99.90
64226;DHT22;50545;56.064;26.178;2022-09-09T18:04:12;7.60;99.90
64226;DHT22;50545;56.064;26.178;2022-09-09T18:06:45;7.50;99.90
64226;DHT22;50545;56.064;26.178;2022-09-09T18:09:15;7.50;99.90
64226;DHT22;50545;56.064;26.178;2022-09-09T18:11:45;7.40;99.90